sensor_id;sensor_type;location;lat;lon;timestamp;P1;durP1;ratioP1;P2;durP2;ratioP2
2710;SDS011;20721;47.402;8.550;2023-04-16T00:00:32;3.14;;;3.14;;
2710;SDS011;20721;47.402;8.550;2023-04-16T00:01:32;3.20;;;3.20;;
2710;SDS011;20721;47.402;8.550;2023-04-16T00:02:33;3.22;;;3.22;;
2710;SDS011;20721;47.402;8.550;2023-04-16T00:03:33;3.03;;;3.03;;
2710;SDS011;20721;47.402;8.550;2023-04-16T00:04:32;2.94;;;2.94;;
2710;SDS011;20721;47.402;8.550;2023-04-16T00:05:32;3.58;;;3.58;;
2710;SDS011;20721;47.402;8.550;2023-04-16T00:06:32;3.28;;;3.28;;
2710;SDS011;20721;47.402;8.550;2023-04-16T00:07:32;3.12;;;3.12;;
2710;SDS011;20721;47.402;8.550;2023-04-16T00:08:33;3.68;;;3.68;;
2710;SDS011;20721;47.402;8.550;2023-04-16T00:09:32;4.00;;;4.00;;
2710;SDS011;20721;47.402;8.550;2023-04-16T00:10:33;3.08;;;3.08;;
2710;SDS011;20721;47.402;8.550;2023-04-16T00:11:32;2.90;;;2.90;;
2710;SDS011;20721;47.402;8.550;2023-04-16T00:12:32;3.82;;;3.82;;
2710;SDS011;20721;47.402;8.550;2023-04-16T00:13:32;3.35;;;3.35;;
2710;SDS011;20721;47.402;8.550;2023-04-16T00:15:32;3.00;;;3.00;;
2710;SDS011;20721;47.402;8.550;2023-04-16T00:16:32;3.06;;;3.06;;
2710;SDS011;20721;47.402;8.550;2023-04-16T00:17:32;3.11;;;3.11;;
2710;SDS011;20721;47.402;8.550;2023-04-16T00:18:32;3.66;;;3.66;;
2710;SDS011;20721;47.402;8.550;2023-04-16T00:19:33;3.50;;;3.50;;
2710;SDS011;20721;47.402;8.550;2023-04-16T00:20:32;3.94;;;3.94;;
2710;SDS011;20721;47.402;8.550;2023-04-16T00:21:32;3.76;;;3.76;;
2710;SDS011;20721;47.402;8.550;2023-04-16T00:22:32;3.88;;;3.88;;
2710;SDS011;20721;47.402;8.550;2023-04-16T00:23:34;3.93;;;3.93;;
2710;SDS011;20721;47.402;8.550;2023-04-16T00:24:32;3.38;;;3.38;;
2710;SDS011;20721;47.402;8.550;2023-04-16T00:25:33;3.36;;;3.36;;
2710;SDS011;20721;47.402;8.550;2023-04-16T00:26:32;3.76;;;3.76;;
2710;SDS011;20721;47.402;8.550;2023-04-16T00:27:32;3.63;;;3.63;;
2710;SDS011;20721;47.402;8.550;2023-04-16T00:28:32;3.25;;;3.25;;
2710;SDS011;20721;47.402;8.550;2023-04-16T00:29:32;3.09;;;3.09;;
2710;SDS011;20721;47.402;8.550;2023-04-16T00:30:32;3.16;;;3.16;;
2710;SDS011;20721;47.402;8.550;2023-04-16T00:32:32;3.45;;;3.45;;
2710;SDS011;20721;47.402;8.550;2023-04-16T00:33:32;3.02;;;3.02;;
2710;SDS011;20721;47.402;8.550;2023-04-16T00:34:32;3.72;;;3.72;;
2710;SDS011;20721;47.402;8.550;2023-04-16T00:35:33;3.42;;;3.42;;
2710;SDS011;20721;47.402;8.550;2023-04-16T00:36:32;3.22;;;3.22;;
2710;SDS011;20721;47.402;8.550;2023-04-16T00:37:32;3.32;;;3.32;;
2710;SDS011;20721;47.402;8.550;2023-04-16T00:38:32;3.60;;;3.60;;
2710;SDS011;20721;47.402;8.550;2023-04-16T00:39:32;3.73;;;3.73;;
2710;SDS011;20721;47.402;8.550;2023-04-16T00:40:36;3.51;;;3.51;;
2710;SDS011;20721;47.402;8.550;2023-04-16T00:41:32;3.42;;;3.42;;
2710;SDS011;20721;47.402;8.550;2023-04-16T00:42:32;3.09;;;3.09;;
2710;SDS011;20721;47.402;8.550;2023-04-16T00:43:34;3.31;;;3.31;;
2710;SDS011;20721;47.402;8.550;2023-04-16T00:44:32;3.35;;;3.35;;
2710;SDS011;20721;47.402;8.550;2023-04-16T00:45:32;3.15;;;3.15;;
2710;SDS011;20721;47.402;8.550;2023-04-16T00:46:33;3.93;;;3.93;;
2710;SDS011;20721;47.402;8.550;2023-04-16T00:47:32;3.83;;;3.83;;
2710;SDS011;20721;47.402;8.550;2023-04-16T00:48:33;3.42;;;3.42;;
2710;SDS011;20721;47.402;8.550;2023-04-16T00:49:32;3.33;;;3.33;;
2710;SDS011;20721;47.402;8.550;2023-04-16T00:50:32;3.07;;;3.07;;
2710;SDS011;20721;47.402;8.550;2023-04-16T00:51:33;3.38;;;3.38;;
2710;SDS011;20721;47.402;8.550;2023-04-16T00:52:33;3.74;;;3.74;;
2710;SDS011;20721;47.402;8.550;2023-04-16T00:54:33;3.50;;;3.50;;
2710;SDS011;20721;47.402;8.550;2023-04-16T00:55:32;3.60;;;3.60;;
2710;SDS011;20721;47.402;8.550;2023-04-16T00:56:33;3.50;;;3.50;;
2710;SDS011;20721;47.402;8.550;2023-04-16T00:57:33;3.53;;;3.53;;
2710;SDS011;20721;47.402;8.550;2023-04-16T00:58:33;4.05;;;4.05;;
2710;SDS011;20721;47.402;8.550;2023-04-16T00:59:32;3.87;;;3.87;;
2710;SDS011;20721;47.402;8.550;2023-04-16T01:00:32;3.91;;;3.91;;
2710;SDS011;20721;47.402;8.550;2023-04-16T01:01:32;3.43;;;3.43;;
2710;SDS011;20721;47.402;8.550;2023-04-16T01:02:33;3.78;;;3.78;;
2710;SDS011;20721;47.402;8.550;2023-04-16T01:03:38;4.09;;;4.09;;
2710;SDS011;20721;47.402;8.550;2023-04-16T01:04:33;3.50;;;3.50;;
2710;SDS011;20721;47.402;8.550;2023-04-16T01:05:32;4.02;;;4.02;;
2710;SDS011;20721;47.402;8.550;2023-04-16T01:06:32;3.87;;;3.87;;
2710;SDS011;20721;47.402;8.550;2023-04-16T01:07:32;3.73;;;3.73;;
2710;SDS011;20721;47.402;8.550;2023-04-16T01:09:32;3.74;;;3.74;;
2710;SDS011;20721;47.402;8.550;2023-04-16T01:10:32;4.12;;;4.12;;
2710;SDS011;20721;47.402;8.550;2023-04-16T01:11:32;3.50;;;3.50;;
2710;SDS011;20721;47.402;8.550;2023-04-16T01:13:32;4.10;;;4.10;;
2710;SDS011;20721;47.402;8.550;2023-04-16T01:14:32;3.58;;;3.58;;
2710;SDS011;20721;47.402;8.550;2023-04-16T01:15:32;4.22;;;4.22;;
2710;SDS011;20721;47.402;8.550;2023-04-16T01:16:32;4.31;;;4.31;;
2710;SDS011;20721;47.402;8.550;2023-04-16T01:17:32;3.89;;;3.89;;
2710;SDS011;20721;47.402;8.550;2023-04-16T01:18:32;4.44;;;4.44;;
2710;SDS011;20721;47.402;8.550;2023-04-16T01:19:32;4.01;;;4.01;;
2710;SDS011;20721;47.402;8.550;2023-04-16T01:20:34;4.07;;;4.07;;
2710;SDS011;20721;47.402;8.550;2023-04-16T01:21:32;4.08;;;4.08;;
2710;SDS011;20721;47.402;8.550;2023-04-16T01:22:32;3.97;;;3.97;;
2710;SDS011;20721;47.402;8.550;2023-04-16T01:23:32;3.83;;;3.83;;
2710;SDS011;20721;47.402;8.550;2023-04-16T01:24:32;3.76;;;3.76;;
2710;SDS011;20721;47.402;8.550;2023-04-16T01:25:32;3.91;;;3.91;;
2710;SDS011;20721;47.402;8.550;2023-04-16T01:26:32;3.95;;;3.95;;
2710;SDS011;20721;47.402;8.550;2023-04-16T01:27:32;4.54;;;4.54;;
2710;SDS011;20721;47.402;8.550;2023-04-16T01:28:32;4.21;;;4.21;;
2710;SDS011;20721;47.402;8.550;2023-04-16T01:29:32;4.06;;;4.06;;
2710;SDS011;20721;47.402;8.550;2023-04-16T01:30:32;3.84;;;3.84;;
2710;SDS011;20721;47.402;8.550;2023-04-16T01:31:32;4.29;;;4.29;;
2710;SDS011;20721;47.402;8.550;2023-04-16T01:32:32;4.08;;;4.08;;
2710;SDS011;20721;47.402;8.550;2023-04-16T01:33:33;3.80;;;3.80;;
2710;SDS011;20721;47.402;8.550;2023-04-16T01:36:32;3.98;;;3.98;;
2710;SDS011;20721;47.402;8.550;2023-04-16T01:37:32;4.19;;;4.19;;
2710;SDS011;20721;47.402;8.550;2023-04-16T01:38:32;3.94;;;3.94;;
2710;SDS011;20721;47.402;8.550;2023-04-16T01:39:33;4.11;;;4.11;;
2710;SDS011;20721;47.402;8.550;2023-04-16T01:40:33;4.61;;;4.61;;
2710;SDS011;20721;47.402;8.550;2023-04-16T01:42:32;4.46;;;4.46;;
2710;SDS011;20721;47.402;8.550;2023-04-16T01:43:32;4.60;;;4.60;;
2710;SDS011;20721;47.402;8.550;2023-04-16T01:44:32;3.88;;;3.88;;
2710;SDS011;20721;47.402;8.550;2023-04-16T01:45:33;4.20;;;4.20;;
2710;SDS011;20721;47.402;8.550;2023-04-16T01:46:36;4.13;;;4.13;;
2710;SDS011;20721;47.402;8.550;2023-04-16T01:47:32;3.85;;;3.85;;
2710;SDS011;20721;47.402;8.550;2023-04-16T01:48:32;4.06;;;4.06;;
2710;SDS011;20721;47.402;8.550;2023-04-16T01:49:32;4.15;;;4.15;;
2710;SDS011;20721;47.402;8.550;2023-04-16T01:50:32;4.31;;;4.31;;
2710;SDS011;20721;47.402;8.550;2023-04-16T01:51:33;3.65;;;3.65;;
2710;SDS011;20721;47.402;8.550;2023-04-16T01:52:32;4.66;;;4.66;;
2710;SDS011;20721;47.402;8.550;2023-04-16T01:53:32;3.77;;;3.77;;
2710;SDS011;20721;47.402;8.550;2023-04-16T01:54:32;4.87;;;4.87;;
2710;SDS011;20721;47.402;8.550;2023-04-16T01:55:32;4.82;;;4.82;;
2710;SDS011;20721;47.402;8.550;2023-04-16T01:56:32;4.16;;;4.16;;
2710;SDS011;20721;47.402;8.550;2023-04-16T01:57:32;4.57;;;4.57;;
2710;SDS011;20721;47.402;8.550;2023-04-16T01:58:32;4.56;;;4.56;;
2710;SDS011;20721;47.402;8.550;2023-04-16T01:59:32;4.13;;;4.13;;
2710;SDS011;20721;47.402;8.550;2023-04-16T02:00:32;4.04;;;4.04;;
2710;SDS011;20721;47.402;8.550;2023-04-16T02:01:33;4.52;;;4.52;;
2710;SDS011;20721;47.402;8.550;2023-04-16T02:02:37;5.31;;;5.31;;
2710;SDS011;20721;47.402;8.550;2023-04-16T02:03:33;4.86;;;4.86;;
2710;SDS011;20721;47.402;8.550;2023-04-16T02:05:32;6.19;;;6.19;;
2710;SDS011;20721;47.402;8.550;2023-04-16T02:08:32;5.08;;;5.08;;
2710;SDS011;20721;47.402;8.550;2023-04-16T02:09:34;4.54;;;4.54;;
2710;SDS011;20721;47.402;8.550;2023-04-16T02:10:34;4.20;;;4.20;;
2710;SDS011;20721;47.402;8.550;2023-04-16T02:11:34;4.85;;;4.85;;
2710;SDS011;20721;47.402;8.550;2023-04-16T02:12:32;4.48;;;4.48;;
2710;SDS011;20721;47.402;8.550;2023-04-16T02:13:38;4.32;;;4.32;;
2710;SDS011;20721;47.402;8.550;2023-04-16T02:14:34;3.93;;;3.93;;
2710;SDS011;20721;47.402;8.550;2023-04-16T02:15:34;4.59;;;4.59;;
2710;SDS011;20721;47.402;8.550;2023-04-16T02:17:33;4.35;;;4.35;;
2710;SDS011;20721;47.402;8.550;2023-04-16T02:18:32;4.77;;;4.77;;
2710;SDS011;20721;47.402;8.550;2023-04-16T02:19:32;4.93;;;4.93;;
2710;SDS011;20721;47.402;8.550;2023-04-16T02:20:32;4.79;;;4.79;;
2710;SDS011;20721;47.402;8.550;2023-04-16T02:21:32;5.12;;;5.12;;
2710;SDS011;20721;47.402;8.550;2023-04-16T02:22:33;4.52;;;4.52;;
2710;SDS011;20721;47.402;8.550;2023-04-16T02:23:32;4.23;;;4.23;;
2710;SDS011;20721;47.402;8.550;2023-04-16T02:26:32;4.84;;;4.84;;
2710;SDS011;20721;47.402;8.550;2023-04-16T02:28:32;4.87;;;4.87;;
2710;SDS011;20721;47.402;8.550;2023-04-16T02:29:32;4.83;;;4.83;;
2710;SDS011;20721;47.402;8.550;2023-04-16T02:30:34;4.91;;;4.91;;
2710;SDS011;20721;47.402;8.550;2023-04-16T02:31:33;4.60;;;4.60;;
2710;SDS011;20721;47.402;8.550;2023-04-16T02:32:33;4.06;;;4.06;;
2710;SDS011;20721;47.402;8.550;2023-04-16T02:33:35;4.27;;;4.27;;
2710;SDS011;20721;47.402;8.550;2023-04-16T02:34:32;4.93;;;4.93;;
2710;SDS011;20721;47.402;8.550;2023-04-16T02:35:33;4.75;;;4.75;;
2710;SDS011;20721;47.402;8.550;2023-04-16T02:37:33;4.39;;;4.39;;
2710;SDS011;20721;47.402;8.550;2023-04-16T02:38:32;4.81;;;4.81;;
2710;SDS011;20721;47.402;8.550;2023-04-16T02:39:32;5.04;;;5.04;;
2710;SDS011;20721;47.402;8.550;2023-04-16T02:40:33;4.55;;;4.55;;
2710;SDS011;20721;47.402;8.550;2023-04-16T02:41:33;4.42;;;4.42;;
2710;SDS011;20721;47.402;8.550;2023-04-16T02:42:32;4.85;;;4.85;;
2710;SDS011;20721;47.402;8.550;2023-04-16T02:43:32;4.91;;;4.91;;
2710;SDS011;20721;47.402;8.550;2023-04-16T02:45:33;5.22;;;5.22;;
2710;SDS011;20721;47.402;8.550;2023-04-16T02:46:33;4.62;;;4.62;;
2710;SDS011;20721;47.402;8.550;2023-04-16T02:47:34;5.83;;;5.83;;
2710;SDS011;20721;47.402;8.550;2023-04-16T02:48:32;5.12;;;5.12;;
2710;SDS011;20721;47.402;8.550;2023-04-16T02:49:32;5.66;;;5.66;;
2710;SDS011;20721;47.402;8.550;2023-04-16T02:51:32;4.94;;;4.94;;
2710;SDS011;20721;47.402;8.550;2023-04-16T02:53:34;5.47;;;5.47;;
2710;SDS011;20721;47.402;8.550;2023-04-16T02:54:32;5.08;;;5.08;;
2710;SDS011;20721;47.402;8.550;2023-04-16T02:55:32;5.62;;;5.62;;
2710;SDS011;20721;47.402;8.550;2023-04-16T02:57:32;5.49;;;5.49;;
2710;SDS011;20721;47.402;8.550;2023-04-16T02:59:32;5.66;;;5.66;;
2710;SDS011;20721;47.402;8.550;2023-04-16T03:00:32;5.65;;;5.65;;
2710;SDS011;20721;47.402;8.550;2023-04-16T03:01:33;4.59;;;4.59;;
2710;SDS011;20721;47.402;8.550;2023-04-16T03:04:33;4.92;;;4.92;;
2710;SDS011;20721;47.402;8.550;2023-04-16T03:06:33;5.22;;;5.22;;
2710;SDS011;20721;47.402;8.550;2023-04-16T03:07:33;5.42;;;5.42;;
2710;SDS011;20721;47.402;8.550;2023-04-16T03:09:33;5.31;;;5.31;;
2710;SDS011;20721;47.402;8.550;2023-04-16T03:10:33;5.32;;;5.32;;
2710;SDS011;20721;47.402;8.550;2023-04-16T03:11:32;5.02;;;5.02;;
2710;SDS011;20721;47.402;8.550;2023-04-16T03:12:33;5.60;;;5.60;;
2710;SDS011;20721;47.402;8.550;2023-04-16T03:13:32;5.00;;;5.00;;
2710;SDS011;20721;47.402;8.550;2023-04-16T03:14:32;5.09;;;5.09;;
2710;SDS011;20721;47.402;8.550;2023-04-16T03:15:33;5.13;;;5.13;;
2710;SDS011;20721;47.402;8.550;2023-04-16T03:16:33;5.07;;;5.07;;
2710;SDS011;20721;47.402;8.550;2023-04-16T03:17:33;5.67;;;5.67;;
2710;SDS011;20721;47.402;8.550;2023-04-16T03:18:32;4.85;;;4.85;;
2710;SDS011;20721;47.402;8.550;2023-04-16T03:19:33;5.42;;;5.42;;
2710;SDS011;20721;47.402;8.550;2023-04-16T03:20:33;5.53;;;5.53;;
2710;SDS011;20721;47.402;8.550;2023-04-16T03:21:33;5.50;;;5.50;;
2710;SDS011;20721;47.402;8.550;2023-04-16T03:23:33;5.51;;;5.51;;
2710;SDS011;20721;47.402;8.550;2023-04-16T03:24:35;5.27;;;5.27;;
2710;SDS011;20721;47.402;8.550;2023-04-16T03:25:33;6.00;;;6.00;;
2710;SDS011;20721;47.402;8.550;2023-04-16T03:26:33;5.84;;;5.84;;
2710;SDS011;20721;47.402;8.550;2023-04-16T03:27:33;5.58;;;5.58;;
2710;SDS011;20721;47.402;8.550;2023-04-16T03:28:33;6.00;;;6.00;;
2710;SDS011;20721;47.402;8.550;2023-04-16T03:29:35;5.94;;;5.94;;
2710;SDS011;20721;47.402;8.550;2023-04-16T03:30:34;5.51;;;5.51;;
2710;SDS011;20721;47.402;8.550;2023-04-16T03:32:33;5.85;;;5.85;;
2710;SDS011;20721;47.402;8.550;2023-04-16T03:33:33;4.74;;;4.74;;
2710;SDS011;20721;47.402;8.550;2023-04-16T03:34:33;4.85;;;4.85;;
2710;SDS011;20721;47.402;8.550;2023-04-16T03:35:33;5.45;;;5.45;;
2710;SDS011;20721;47.402;8.550;2023-04-16T03:36:33;5.53;;;5.53;;
2710;SDS011;20721;47.402;8.550;2023-04-16T03:37:33;5.96;;;5.96;;
2710;SDS011;20721;47.402;8.550;2023-04-16T03:38:33;5.70;;;5.70;;
2710;SDS011;20721;47.402;8.550;2023-04-16T03:39:33;5.45;;;5.45;;
2710;SDS011;20721;47.402;8.550;2023-04-16T03:41:33;6.32;;;6.32;;
2710;SDS011;20721;47.402;8.550;2023-04-16T03:42:33;6.37;;;6.37;;
2710;SDS011;20721;47.402;8.550;2023-04-16T03:43:33;5.75;;;5.75;;
2710;SDS011;20721;47.402;8.550;2023-04-16T03:44:33;6.47;;;6.47;;
2710;SDS011;20721;47.402;8.550;2023-04-16T03:45:33;5.67;;;5.67;;
2710;SDS011;20721;47.402;8.550;2023-04-16T03:46:33;5.96;;;5.96;;
2710;SDS011;20721;47.402;8.550;2023-04-16T03:48:33;6.29;;;6.29;;
2710;SDS011;20721;47.402;8.550;2023-04-16T03:49:33;5.37;;;5.37;;
2710;SDS011;20721;47.402;8.550;2023-04-16T03:50:33;5.84;;;5.84;;
2710;SDS011;20721;47.402;8.550;2023-04-16T03:51:33;5.96;;;5.96;;
2710;SDS011;20721;47.402;8.550;2023-04-16T03:52:33;5.59;;;5.59;;
2710;SDS011;20721;47.402;8.550;2023-04-16T03:53:33;6.46;;;6.46;;
2710;SDS011;20721;47.402;8.550;2023-04-16T03:54:33;5.97;;;5.97;;
2710;SDS011;20721;47.402;8.550;2023-04-16T03:55:33;6.80;;;6.80;;
2710;SDS011;20721;47.402;8.550;2023-04-16T03:56:33;6.46;;;6.46;;
2710;SDS011;20721;47.402;8.550;2023-04-16T03:57:33;6.04;;;6.04;;
2710;SDS011;20721;47.402;8.550;2023-04-16T03:58:33;6.32;;;6.32;;
2710;SDS011;20721;47.402;8.550;2023-04-16T03:59:33;5.65;;;5.65;;
2710;SDS011;20721;47.402;8.550;2023-04-16T04:00:33;6.44;;;6.44;;
2710;SDS011;20721;47.402;8.550;2023-04-16T04:01:34;6.63;;;6.63;;
2710;SDS011;20721;47.402;8.550;2023-04-16T04:02:33;6.35;;;6.35;;
2710;SDS011;20721;47.402;8.550;2023-04-16T04:03:35;6.81;;;6.81;;
2710;SDS011;20721;47.402;8.550;2023-04-16T04:04:33;6.03;;;6.03;;
2710;SDS011;20721;47.402;8.550;2023-04-16T04:05:37;6.29;;;6.29;;
2710;SDS011;20721;47.402;8.550;2023-04-16T04:06:33;6.14;;;6.14;;
2710;SDS011;20721;47.402;8.550;2023-04-16T04:07:34;6.59;;;6.59;;
2710;SDS011;20721;47.402;8.550;2023-04-16T04:08:33;6.04;;;6.04;;
2710;SDS011;20721;47.402;8.550;2023-04-16T04:09:33;6.42;;;6.42;;
2710;SDS011;20721;47.402;8.550;2023-04-16T04:10:33;5.87;;;5.87;;
2710;SDS011;20721;47.402;8.550;2023-04-16T04:11:33;6.59;;;6.59;;
2710;SDS011;20721;47.402;8.550;2023-04-16T04:12:33;6.67;;;6.67;;
2710;SDS011;20721;47.402;8.550;2023-04-16T04:13:33;6.50;;;6.50;;
2710;SDS011;20721;47.402;8.550;2023-04-16T04:14:33;6.40;;;6.40;;
2710;SDS011;20721;47.402;8.550;2023-04-16T04:15:33;6.72;;;6.72;;
2710;SDS011;20721;47.402;8.550;2023-04-16T04:16:33;6.01;;;6.01;;
2710;SDS011;20721;47.402;8.550;2023-04-16T04:17:33;7.74;;;7.74;;
2710;SDS011;20721;47.402;8.550;2023-04-16T04:18:33;6.53;;;6.53;;
2710;SDS011;20721;47.402;8.550;2023-04-16T04:19:33;7.42;;;7.42;;
2710;SDS011;20721;47.402;8.550;2023-04-16T04:21:33;6.52;;;6.52;;
2710;SDS011;20721;47.402;8.550;2023-04-16T04:22:33;7.13;;;7.13;;
2710;SDS011;20721;47.402;8.550;2023-04-16T04:23:33;6.93;;;6.93;;
2710;SDS011;20721;47.402;8.550;2023-04-16T04:25:33;7.08;;;7.08;;
2710;SDS011;20721;47.402;8.550;2023-04-16T04:26:33;6.64;;;6.64;;
2710;SDS011;20721;47.402;8.550;2023-04-16T04:27:33;7.04;;;7.04;;
2710;SDS011;20721;47.402;8.550;2023-04-16T04:28:33;6.77;;;6.77;;
2710;SDS011;20721;47.402;8.550;2023-04-16T04:29:33;6.45;;;6.45;;
2710;SDS011;20721;47.402;8.550;2023-04-16T04:30:33;6.92;;;6.92;;
2710;SDS011;20721;47.402;8.550;2023-04-16T04:31:33;6.61;;;6.61;;
2710;SDS011;20721;47.402;8.550;2023-04-16T04:32:33;6.62;;;6.62;;
2710;SDS011;20721;47.402;8.550;2023-04-16T04:33:34;7.07;;;7.07;;
2710;SDS011;20721;47.402;8.550;2023-04-16T04:34:33;6.94;;;6.94;;
2710;SDS011;20721;47.402;8.550;2023-04-16T04:35:33;7.29;;;7.29;;
2710;SDS011;20721;47.402;8.550;2023-04-16T04:36:33;6.87;;;6.87;;
2710;SDS011;20721;47.402;8.550;2023-04-16T04:37:33;6.08;;;6.08;;
2710;SDS011;20721;47.402;8.550;2023-04-16T04:38:35;7.02;;;7.02;;
2710;SDS011;20721;47.402;8.550;2023-04-16T04:39:33;6.81;;;6.81;;
2710;SDS011;20721;47.402;8.550;2023-04-16T04:40:33;6.69;;;6.69;;
2710;SDS011;20721;47.402;8.550;2023-04-16T04:41:33;6.46;;;6.46;;
2710;SDS011;20721;47.402;8.550;2023-04-16T04:42:33;7.17;;;7.17;;
2710;SDS011;20721;47.402;8.550;2023-04-16T04:43:33;7.25;;;7.25;;
2710;SDS011;20721;47.402;8.550;2023-04-16T04:45:36;6.53;;;6.53;;
2710;SDS011;20721;47.402;8.550;2023-04-16T04:47:33;7.23;;;7.23;;
2710;SDS011;20721;47.402;8.550;2023-04-16T04:48:35;7.12;;;7.12;;
2710;SDS011;20721;47.402;8.550;2023-04-16T04:49:33;6.12;;;6.12;;
2710;SDS011;20721;47.402;8.550;2023-04-16T04:51:33;6.44;;;6.44;;
2710;SDS011;20721;47.402;8.550;2023-04-16T04:52:33;6.74;;;6.74;;
2710;SDS011;20721;47.402;8.550;2023-04-16T04:53:33;6.56;;;6.56;;
2710;SDS011;20721;47.402;8.550;2023-04-16T04:54:33;7.07;;;7.07;;
2710;SDS011;20721;47.402;8.550;2023-04-16T04:56:33;6.43;;;6.43;;
2710;SDS011;20721;47.402;8.550;2023-04-16T04:57:33;6.31;;;6.31;;
2710;SDS011;20721;47.402;8.550;2023-04-16T04:58:33;6.89;;;6.89;;
2710;SDS011;20721;47.402;8.550;2023-04-16T04:59:33;6.33;;;6.33;;
2710;SDS011;20721;47.402;8.550;2023-04-16T05:01:33;6.77;;;6.77;;
2710;SDS011;20721;47.402;8.550;2023-04-16T05:02:33;6.80;;;6.80;;
2710;SDS011;20721;47.402;8.550;2023-04-16T05:03:33;6.13;;;6.13;;
2710;SDS011;20721;47.402;8.550;2023-04-16T05:04:33;6.89;;;6.89;;
2710;SDS011;20721;47.402;8.550;2023-04-16T05:05:33;7.31;;;7.31;;
2710;SDS011;20721;47.402;8.550;2023-04-16T05:06:33;6.72;;;6.72;;
2710;SDS011;20721;47.402;8.550;2023-04-16T05:08:33;6.54;;;6.54;;
2710;SDS011;20721;47.402;8.550;2023-04-16T05:09:33;6.97;;;6.97;;
2710;SDS011;20721;47.402;8.550;2023-04-16T05:11:33;6.44;;;6.44;;
2710;SDS011;20721;47.402;8.550;2023-04-16T05:13:33;6.09;;;6.09;;
2710;SDS011;20721;47.402;8.550;2023-04-16T05:14:33;6.88;;;6.88;;
2710;SDS011;20721;47.402;8.550;2023-04-16T05:15:35;6.04;;;6.04;;
2710;SDS011;20721;47.402;8.550;2023-04-16T05:17:33;6.10;;;6.10;;
2710;SDS011;20721;47.402;8.550;2023-04-16T05:18:33;6.83;;;6.83;;
2710;SDS011;20721;47.402;8.550;2023-04-16T05:19:33;6.46;;;6.46;;
2710;SDS011;20721;47.402;8.550;2023-04-16T05:20:33;5.83;;;5.83;;
2710;SDS011;20721;47.402;8.550;2023-04-16T05:22:33;6.91;;;6.91;;
2710;SDS011;20721;47.402;8.550;2023-04-16T05:24:33;6.74;;;6.74;;
2710;SDS011;20721;47.402;8.550;2023-04-16T05:25:33;6.51;;;6.51;;
2710;SDS011;20721;47.402;8.550;2023-04-16T05:27:33;6.73;;;6.73;;
2710;SDS011;20721;47.402;8.550;2023-04-16T05:28:33;6.59;;;6.59;;
2710;SDS011;20721;47.402;8.550;2023-04-16T05:29:33;7.05;;;7.05;;
2710;SDS011;20721;47.402;8.550;2023-04-16T05:30:33;6.21;;;6.19;;
2710;SDS011;20721;47.402;8.550;2023-04-16T05:33:33;6.96;;;6.96;;
2710;SDS011;20721;47.402;8.550;2023-04-16T05:35:33;7.51;;;7.51;;
2710;SDS011;20721;47.402;8.550;2023-04-16T05:36:33;6.47;;;6.47;;
2710;SDS011;20721;47.402;8.550;2023-04-16T05:37:33;6.49;;;6.49;;
2710;SDS011;20721;47.402;8.550;2023-04-16T05:38:33;6.18;;;6.18;;
2710;SDS011;20721;47.402;8.550;2023-04-16T05:39:33;6.89;;;6.89;;
2710;SDS011;20721;47.402;8.550;2023-04-16T05:40:33;6.23;;;6.23;;
2710;SDS011;20721;47.402;8.550;2023-04-16T05:42:33;6.23;;;6.22;;
2710;SDS011;20721;47.402;8.550;2023-04-16T05:43:33;6.79;;;6.78;;
2710;SDS011;20721;47.402;8.550;2023-04-16T05:44:33;7.08;;;7.08;;
2710;SDS011;20721;47.402;8.550;2023-04-16T05:45:33;7.02;;;7.02;;
2710;SDS011;20721;47.402;8.550;2023-04-16T05:47:33;6.24;;;6.24;;
2710;SDS011;20721;47.402;8.550;2023-04-16T05:48:33;6.89;;;6.89;;
2710;SDS011;20721;47.402;8.550;2023-04-16T05:49:33;6.41;;;6.41;;
2710;SDS011;20721;47.402;8.550;2023-04-16T05:50:33;6.51;;;6.51;;
2710;SDS011;20721;47.402;8.550;2023-04-16T05:51:35;6.12;;;6.12;;
2710;SDS011;20721;47.402;8.550;2023-04-16T05:52:35;6.74;;;6.74;;
2710;SDS011;20721;47.402;8.550;2023-04-16T05:53:33;6.46;;;6.46;;
2710;SDS011;20721;47.402;8.550;2023-04-16T05:54:33;6.07;;;6.07;;
2710;SDS011;20721;47.402;8.550;2023-04-16T05:55:33;6.18;;;6.18;;
2710;SDS011;20721;47.402;8.550;2023-04-16T05:56:34;5.89;;;5.89;;
2710;SDS011;20721;47.402;8.550;2023-04-16T05:57:33;6.03;;;6.03;;
2710;SDS011;20721;47.402;8.550;2023-04-16T05:58:35;5.78;;;5.78;;
2710;SDS011;20721;47.402;8.550;2023-04-16T06:01:33;6.68;;;6.68;;
2710;SDS011;20721;47.402;8.550;2023-04-16T06:02:33;5.52;;;5.52;;
2710;SDS011;20721;47.402;8.550;2023-04-16T06:03:33;6.12;;;6.12;;
2710;SDS011;20721;47.402;8.550;2023-04-16T06:04:33;6.57;;;6.57;;
2710;SDS011;20721;47.402;8.550;2023-04-16T06:05:37;6.83;;;6.83;;
2710;SDS011;20721;47.402;8.550;2023-04-16T06:06:33;6.05;;;6.05;;
2710;SDS011;20721;47.402;8.550;2023-04-16T06:07:33;5.59;;;5.59;;
2710;SDS011;20721;47.402;8.550;2023-04-16T06:09:33;5.75;;;5.75;;
2710;SDS011;20721;47.402;8.550;2023-04-16T06:10:33;5.62;;;5.62;;
2710;SDS011;20721;47.402;8.550;2023-04-16T06:11:33;5.86;;;5.86;;
2710;SDS011;20721;47.402;8.550;2023-04-16T06:14:33;6.51;;;6.51;;
2710;SDS011;20721;47.402;8.550;2023-04-16T06:15:33;6.13;;;6.13;;
2710;SDS011;20721;47.402;8.550;2023-04-16T06:16:33;6.58;;;6.58;;
2710;SDS011;20721;47.402;8.550;2023-04-16T06:17:33;5.05;;;5.05;;
2710;SDS011;20721;47.402;8.550;2023-04-16T06:18:33;6.67;;;6.67;;
2710;SDS011;20721;47.402;8.550;2023-04-16T06:19:33;6.04;;;6.04;;
2710;SDS011;20721;47.402;8.550;2023-04-16T06:20:33;6.12;;;6.12;;
2710;SDS011;20721;47.402;8.550;2023-04-16T06:21:33;6.90;;;6.90;;
2710;SDS011;20721;47.402;8.550;2023-04-16T06:22:33;6.47;;;6.47;;
2710;SDS011;20721;47.402;8.550;2023-04-16T06:24:33;5.98;;;5.98;;
2710;SDS011;20721;47.402;8.550;2023-04-16T06:25:33;6.30;;;6.30;;
2710;SDS011;20721;47.402;8.550;2023-04-16T06:27:33;5.92;;;5.92;;
2710;SDS011;20721;47.402;8.550;2023-04-16T06:28:33;5.71;;;5.71;;
2710;SDS011;20721;47.402;8.550;2023-04-16T06:29:45;5.50;;;5.50;;
2710;SDS011;20721;47.402;8.550;2023-04-16T06:30:33;6.28;;;6.28;;
2710;SDS011;20721;47.402;8.550;2023-04-16T06:31:33;6.83;;;6.83;;
2710;SDS011;20721;47.402;8.550;2023-04-16T06:32:33;5.49;;;5.49;;
2710;SDS011;20721;47.402;8.550;2023-04-16T06:33:33;6.34;;;6.34;;
2710;SDS011;20721;47.402;8.550;2023-04-16T06:34:33;5.23;;;5.23;;
2710;SDS011;20721;47.402;8.550;2023-04-16T06:36:33;6.06;;;6.06;;
2710;SDS011;20721;47.402;8.550;2023-04-16T06:37:33;6.01;;;6.01;;
2710;SDS011;20721;47.402;8.550;2023-04-16T06:38:34;5.58;;;5.58;;
2710;SDS011;20721;47.402;8.550;2023-04-16T06:39:33;6.15;;;6.15;;
2710;SDS011;20721;47.402;8.550;2023-04-16T06:41:35;6.06;;;6.06;;
2710;SDS011;20721;47.402;8.550;2023-04-16T06:42:33;5.62;;;5.62;;
2710;SDS011;20721;47.402;8.550;2023-04-16T06:43:33;5.73;;;5.73;;
2710;SDS011;20721;47.402;8.550;2023-04-16T06:44:34;5.61;;;5.61;;
2710;SDS011;20721;47.402;8.550;2023-04-16T06:45:33;5.27;;;5.27;;
2710;SDS011;20721;47.402;8.550;2023-04-16T06:46:33;4.86;;;4.86;;
2710;SDS011;20721;47.402;8.550;2023-04-16T06:47:33;5.23;;;5.23;;
2710;SDS011;20721;47.402;8.550;2023-04-16T06:48:33;5.48;;;5.48;;
2710;SDS011;20721;47.402;8.550;2023-04-16T06:49:33;5.25;;;5.25;;
2710;SDS011;20721;47.402;8.550;2023-04-16T06:50:34;4.63;;;4.63;;
2710;SDS011;20721;47.402;8.550;2023-04-16T06:51:33;4.66;;;4.66;;
2710;SDS011;20721;47.402;8.550;2023-04-16T06:52:33;4.56;;;4.56;;
2710;SDS011;20721;47.402;8.550;2023-04-16T06:53:33;4.61;;;4.61;;
2710;SDS011;20721;47.402;8.550;2023-04-16T06:54:33;4.64;;;4.64;;
2710;SDS011;20721;47.402;8.550;2023-04-16T06:56:33;4.15;;;4.15;;
2710;SDS011;20721;47.402;8.550;2023-04-16T06:57:33;4.20;;;4.20;;
2710;SDS011;20721;47.402;8.550;2023-04-16T06:58:33;4.41;;;4.41;;
2710;SDS011;20721;47.402;8.550;2023-04-16T07:00:33;4.11;;;4.11;;
2710;SDS011;20721;47.402;8.550;2023-04-16T07:01:33;3.66;;;3.66;;
2710;SDS011;20721;47.402;8.550;2023-04-16T07:02:33;5.20;;;5.20;;
2710;SDS011;20721;47.402;8.550;2023-04-16T07:03:34;4.41;;;4.41;;
2710;SDS011;20721;47.402;8.550;2023-04-16T07:04:33;4.22;;;4.22;;
2710;SDS011;20721;47.402;8.550;2023-04-16T07:05:33;5.05;;;5.05;;